Parker, South Dakota
Current Conditions -  °F | °C
As of 5:56 AM on Friday 21 Nov 2014 (Local Time) from KFSD Reporting Station
Few Clouds Few Clouds  
Wind Chill:   Ceiling: Unl
Heat Index: 17°   Visibility: 10mi
Dew Point: 12°   Wind: 15mph
Humidity: 81%   Direction: 180°S
Pressure: 30.09"   Gusts: NA
Location:  43.4°N, 97.14°W
Report Text: KFSD 211156Z 18013KT 10SM FEW250 M08/M11 A3009 RMK AO2 SLP218 4/003 T10831111 11083 21117 56018
Loading
Personal Weather Stations






























Interactive Weather Map New forecast layout! Learn more

10-Day Weather Forecast

Advertisements
Track Severe Weather on mobile